sensor_id;sensor_type;location;lat;lon;timestamp;P1;durP1;ratioP1;P2;durP2;ratioP2
46675;SDS011;32412;51.478;5.694;2023-10-31T00:00:20;21.30;;;14.63;;
46675;SDS011;32412;51.478;5.694;2023-10-31T00:02:46;25.23;;;16.02;;
46675;SDS011;32412;51.478;5.694;2023-10-31T00:05:11;23.15;;;14.68;;
46675;SDS011;32412;51.478;5.694;2023-10-31T00:07:37;22.40;;;15.75;;
46675;SDS011;32412;51.478;5.694;2023-10-31T00:10:02;25.73;;;14.80;;
46675;SDS011;32412;51.478;5.694;2023-10-31T00:12:28;22.60;;;15.35;;
46675;SDS011;32412;51.478;5.694;2023-10-31T00:14:54;24.23;;;15.30;;
46675;SDS011;32412;51.478;5.694;2023-10-31T00:17:20;23.08;;;15.23;;
46675;SDS011;32412;51.478;5.694;2023-10-31T00:19:45;25.38;;;14.85;;
46675;SDS011;32412;51.478;5.694;2023-10-31T00:22:11;23.27;;;14.70;;
46675;SDS011;32412;51.478;5.694;2023-10-31T00:24:36;18.88;;;13.65;;
46675;SDS011;32412;51.478;5.694;2023-10-31T00:27:02;25.63;;;13.90;;
46675;SDS011;32412;51.478;5.694;2023-10-31T00:29:28;25.95;;;13.85;;
46675;SDS011;32412;51.478;5.694;2023-10-31T00:31:53;18.98;;;12.98;;
46675;SDS011;32412;51.478;5.694;2023-10-31T00:34:19;20.38;;;12.73;;
46675;SDS011;32412;51.478;5.694;2023-10-31T00:36:45;23.10;;;12.52;;
46675;SDS011;32412;51.478;5.694;2023-10-31T00:39:11;21.80;;;11.40;;
46675;SDS011;32412;51.478;5.694;2023-10-31T00:41:37;20.15;;;11.00;;
46675;SDS011;32412;51.478;5.694;2023-10-31T00:44:04;18.75;;;10.10;;
46675;SDS011;32412;51.478;5.694;2023-10-31T00:46:30;16.50;;;10.15;;
46675;SDS011;32412;51.478;5.694;2023-10-31T00:48:55;19.20;;;9.73;;
46675;SDS011;32412;51.478;5.694;2023-10-31T00:51:21;16.13;;;8.60;;
46675;SDS011;32412;51.478;5.694;2023-10-31T00:53:46;11.40;;;7.57;;
46675;SDS011;32412;51.478;5.694;2023-10-31T00:56:12;12.88;;;7.82;;
46675;SDS011;32412;51.478;5.694;2023-10-31T00:58:38;10.50;;;7.00;;
46675;SDS011;32412;51.478;5.694;2023-10-31T01:01:03;12.80;;;7.63;;
46675;SDS011;32412;51.478;5.694;2023-10-31T01:03:29;12.88;;;6.68;;
46675;SDS011;32412;51.478;5.694;2023-10-31T01:05:55;10.68;;;6.47;;
46675;SDS011;32412;51.478;5.694;2023-10-31T01:08:20;10.75;;;6.18;;
46675;SDS011;32412;51.478;5.694;2023-10-31T01:10:46;9.32;;;5.82;;
46675;SDS011;32412;51.478;5.694;2023-10-31T01:13:12;14.30;;;6.60;;
46675;SDS011;32412;51.478;5.694;2023-10-31T01:15:37;13.55;;;7.05;;
46675;SDS011;32412;51.478;5.694;2023-10-31T01:18:03;15.80;;;7.90;;
46675;SDS011;32412;51.478;5.694;2023-10-31T01:20:29;14.38;;;7.63;;
46675;SDS011;32412;51.478;5.694;2023-10-31T01:22:54;15.90;;;8.60;;
46675;SDS011;32412;51.478;5.694;2023-10-31T01:25:20;15.60;;;8.23;;
46675;SDS011;32412;51.478;5.694;2023-10-31T01:27:45;18.52;;;9.20;;
46675;SDS011;32412;51.478;5.694;2023-10-31T01:30:11;19.73;;;10.65;;
46675;SDS011;32412;51.478;5.694;2023-10-31T01:32:37;23.63;;;11.77;;
46675;SDS011;32412;51.478;5.694;2023-10-31T01:35:03;23.00;;;13.10;;
46675;SDS011;32412;51.478;5.694;2023-10-31T01:37:29;24.73;;;12.65;;
46675;SDS011;32412;51.478;5.694;2023-10-31T01:39:54;28.10;;;13.07;;
46675;SDS011;32412;51.478;5.694;2023-10-31T01:42:20;27.98;;;13.77;;
46675;SDS011;32412;51.478;5.694;2023-10-31T01:44:46;30.48;;;14.23;;
46675;SDS011;32412;51.478;5.694;2023-10-31T01:47:11;34.58;;;15.63;;
46675;SDS011;32412;51.478;5.694;2023-10-31T01:49:37;32.47;;;17.50;;
46675;SDS011;32412;51.478;5.694;2023-10-31T01:52:03;33.28;;;17.48;;
46675;SDS011;32412;51.478;5.694;2023-10-31T01:54:30;33.05;;;17.23;;
46675;SDS011;32412;51.478;5.694;2023-10-31T01:56:57;28.65;;;15.93;;
46675;SDS011;32412;51.478;5.694;2023-10-31T01:59:32;33.85;;;18.40;;
46675;SDS011;32412;51.478;5.694;2023-10-31T02:01:58;34.65;;;17.48;;
46675;SDS011;32412;51.478;5.694;2023-10-31T02:04:25;31.15;;;17.45;;
46675;SDS011;32412;51.478;5.694;2023-10-31T02:06:51;40.08;;;18.23;;
46675;SDS011;32412;51.478;5.694;2023-10-31T02:09:17;37.58;;;18.13;;
46675;SDS011;32412;51.478;5.694;2023-10-31T02:11:42;36.38;;;18.83;;
46675;SDS011;32412;51.478;5.694;2023-10-31T02:14:08;37.63;;;17.45;;
46675;SDS011;32412;51.478;5.694;2023-10-31T02:16:34;33.60;;;18.77;;
46675;SDS011;32412;51.478;5.694;2023-10-31T02:18:59;31.33;;;17.25;;
46675;SDS011;32412;51.478;5.694;2023-10-31T02:21:25;33.75;;;18.30;;
46675;SDS011;32412;51.478;5.694;2023-10-31T02:23:56;33.63;;;17.98;;
46675;SDS011;32412;51.478;5.694;2023-10-31T02:26:32;31.60;;;17.92;;
46675;SDS011;32412;51.478;5.694;2023-10-31T02:28:58;31.50;;;17.63;;
46675;SDS011;32412;51.478;5.694;2023-10-31T02:31:24;33.45;;;17.45;;
46675;SDS011;32412;51.478;5.694;2023-10-31T02:33:50;36.13;;;17.70;;
46675;SDS011;32412;51.478;5.694;2023-10-31T02:36:16;35.97;;;18.52;;
46675;SDS011;32412;51.478;5.694;2023-10-31T02:38:42;35.88;;;18.60;;
46675;SDS011;32412;51.478;5.694;2023-10-31T02:41:08;40.55;;;19.63;;
46675;SDS011;32412;51.478;5.694;2023-10-31T02:43:33;40.63;;;19.23;;
46675;SDS011;32412;51.478;5.694;2023-10-31T02:45:59;34.42;;;18.95;;
46675;SDS011;32412;51.478;5.694;2023-10-31T02:48:25;36.03;;;18.83;;
46675;SDS011;32412;51.478;5.694;2023-10-31T02:50:51;30.80;;;17.90;;
46675;SDS011;32412;51.478;5.694;2023-10-31T02:53:20;32.97;;;19.52;;
46675;SDS011;32412;51.478;5.694;2023-10-31T02:55:46;34.15;;;18.70;;
46675;SDS011;32412;51.478;5.694;2023-10-31T02:58:11;30.45;;;19.02;;
46675;SDS011;32412;51.478;5.694;2023-10-31T03:00:37;36.50;;;19.60;;
46675;SDS011;32412;51.478;5.694;2023-10-31T03:03:03;37.10;;;19.67;;
46675;SDS011;32412;51.478;5.694;2023-10-31T03:05:29;33.13;;;19.42;;
46675;SDS011;32412;51.478;5.694;2023-10-31T03:07:55;33.55;;;18.98;;
46675;SDS011;32412;51.478;5.694;2023-10-31T03:10:21;35.88;;;18.92;;
46675;SDS011;32412;51.478;5.694;2023-10-31T03:12:47;32.88;;;19.67;;
46675;SDS011;32412;51.478;5.694;2023-10-31T03:15:12;34.25;;;18.58;;
46675;SDS011;32412;51.478;5.694;2023-10-31T03:17:38;34.00;;;18.58;;
46675;SDS011;32412;51.478;5.694;2023-10-31T03:20:04;31.92;;;18.60;;
46675;SDS011;32412;51.478;5.694;2023-10-31T03:22:30;28.40;;;17.33;;
46675;SDS011;32412;51.478;5.694;2023-10-31T03:24:56;37.42;;;18.73;;
46675;SDS011;32412;51.478;5.694;2023-10-31T03:27:21;35.80;;;17.42;;
46675;SDS011;32412;51.478;5.694;2023-10-31T03:29:47;32.92;;;18.52;;
46675;SDS011;32412;51.478;5.694;2023-10-31T03:32:14;32.13;;;18.10;;
46675;SDS011;32412;51.478;5.694;2023-10-31T03:34:39;33.15;;;18.42;;
46675;SDS011;32412;51.478;5.694;2023-10-31T03:37:05;34.17;;;18.85;;
46675;SDS011;32412;51.478;5.694;2023-10-31T03:39:32;35.30;;;18.92;;
46675;SDS011;32412;51.478;5.694;2023-10-31T03:41:58;33.58;;;19.08;;
46675;SDS011;32412;51.478;5.694;2023-10-31T03:44:24;30.20;;;18.00;;
46675;SDS011;32412;51.478;5.694;2023-10-31T03:46:50;38.35;;;19.73;;
46675;SDS011;32412;51.478;5.694;2023-10-31T03:49:16;34.50;;;19.13;;
46675;SDS011;32412;51.478;5.694;2023-10-31T03:51:41;34.17;;;20.33;;
46675;SDS011;32412;51.478;5.694;2023-10-31T03:54:07;32.95;;;19.20;;
46675;SDS011;32412;51.478;5.694;2023-10-31T03:56:40;37.38;;;20.75;;
46675;SDS011;32412;51.478;5.694;2023-10-31T03:59:07;37.97;;;20.17;;
46675;SDS011;32412;51.478;5.694;2023-10-31T04:01:32;39.08;;;20.20;;
46675;SDS011;32412;51.478;5.694;2023-10-31T04:03:58;35.20;;;19.75;;
46675;SDS011;32412;51.478;5.694;2023-10-31T04:06:24;35.33;;;20.17;;
46675;SDS011;32412;51.478;5.694;2023-10-31T04:08:49;35.85;;;20.48;;
46675;SDS011;32412;51.478;5.694;2023-10-31T04:11:15;36.60;;;19.60;;
46675;SDS011;32412;51.478;5.694;2023-10-31T04:13:41;32.22;;;19.10;;
46675;SDS011;32412;51.478;5.694;2023-10-31T04:16:06;34.58;;;19.08;;
46675;SDS011;32412;51.478;5.694;2023-10-31T04:18:32;35.40;;;19.52;;
46675;SDS011;32412;51.478;5.694;2023-10-31T04:20:58;38.17;;;20.45;;
46675;SDS011;32412;51.478;5.694;2023-10-31T04:23:23;37.88;;;20.75;;
46675;SDS011;32412;51.478;5.694;2023-10-31T04:25:49;33.45;;;19.75;;
46675;SDS011;32412;51.478;5.694;2023-10-31T04:28:17;35.72;;;20.13;;
46675;SDS011;32412;51.478;5.694;2023-10-31T04:30:43;35.53;;;19.77;;
46675;SDS011;32412;51.478;5.694;2023-10-31T04:33:09;30.35;;;19.02;;
46675;SDS011;32412;51.478;5.694;2023-10-31T04:35:34;34.22;;;19.77;;
46675;SDS011;32412;51.478;5.694;2023-10-31T04:38:00;30.48;;;18.73;;
46675;SDS011;32412;51.478;5.694;2023-10-31T04:40:26;29.63;;;17.25;;
46675;SDS011;32412;51.478;5.694;2023-10-31T04:42:51;28.70;;;18.58;;
46675;SDS011;32412;51.478;5.694;2023-10-31T04:45:17;28.90;;;17.58;;
46675;SDS011;32412;51.478;5.694;2023-10-31T04:47:43;27.77;;;17.35;;
46675;SDS011;32412;51.478;5.694;2023-10-31T04:50:09;28.35;;;17.25;;
46675;SDS011;32412;51.478;5.694;2023-10-31T04:52:34;25.70;;;16.80;;
46675;SDS011;32412;51.478;5.694;2023-10-31T04:55:00;26.45;;;16.75;;
46675;SDS011;32412;51.478;5.694;2023-10-31T04:57:26;25.20;;;15.95;;
46675;SDS011;32412;51.478;5.694;2023-10-31T04:59:51;22.92;;;15.30;;
46675;SDS011;32412;51.478;5.694;2023-10-31T05:02:21;21.65;;;14.75;;
46675;SDS011;32412;51.478;5.694;2023-10-31T05:04:48;25.73;;;15.88;;
46675;SDS011;32412;51.478;5.694;2023-10-31T05:07:16;27.10;;;16.13;;
46675;SDS011;32412;51.478;5.694;2023-10-31T05:09:42;28.58;;;16.83;;
46675;SDS011;32412;51.478;5.694;2023-10-31T05:12:07;31.55;;;18.25;;
46675;SDS011;32412;51.478;5.694;2023-10-31T05:14:33;31.70;;;17.48;;
46675;SDS011;32412;51.478;5.694;2023-10-31T05:16:59;31.40;;;17.65;;
46675;SDS011;32412;51.478;5.694;2023-10-31T05:19:24;29.55;;;16.60;;
46675;SDS011;32412;51.478;5.694;2023-10-31T05:21:50;24.45;;;14.30;;
46675;SDS011;32412;51.478;5.694;2023-10-31T05:24:16;25.30;;;13.57;;
46675;SDS011;32412;51.478;5.694;2023-10-31T05:26:42;18.05;;;10.88;;
46675;SDS011;32412;51.478;5.694;2023-10-31T05:29:08;20.90;;;11.45;;
46675;SDS011;32412;51.478;5.694;2023-10-31T05:31:34;21.98;;;12.27;;
46675;SDS011;32412;51.478;5.694;2023-10-31T05:34:00;19.90;;;11.85;;
46675;SDS011;32412;51.478;5.694;2023-10-31T05:36:25;27.60;;;14.98;;
46675;SDS011;32412;51.478;5.694;2023-10-31T05:38:52;29.88;;;15.95;;
46675;SDS011;32412;51.478;5.694;2023-10-31T05:41:19;33.63;;;18.40;;
46675;SDS011;32412;51.478;5.694;2023-10-31T05:43:44;32.03;;;19.27;;
46675;SDS011;32412;51.478;5.694;2023-10-31T05:46:10;37.85;;;20.73;;
46675;SDS011;32412;51.478;5.694;2023-10-31T05:48:38;36.83;;;20.85;;
46675;SDS011;32412;51.478;5.694;2023-10-31T05:51:04;39.70;;;21.65;;
46675;SDS011;32412;51.478;5.694;2023-10-31T05:53:35;38.17;;;21.52;;
46675;SDS011;32412;51.478;5.694;2023-10-31T05:56:01;41.30;;;22.20;;
46675;SDS011;32412;51.478;5.694;2023-10-31T05:58:26;37.22;;;22.17;;
46675;SDS011;32412;51.478;5.694;2023-10-31T06:00:52;35.85;;;21.63;;
46675;SDS011;32412;51.478;5.694;2023-10-31T06:03:17;33.45;;;20.48;;
46675;SDS011;32412;51.478;5.694;2023-10-31T06:05:43;36.75;;;21.17;;
46675;SDS011;32412;51.478;5.694;2023-10-31T06:08:10;34.05;;;19.98;;
46675;SDS011;32412;51.478;5.694;2023-10-31T06:10:35;35.47;;;20.90;;
46675;SDS011;32412;51.478;5.694;2023-10-31T06:13:01;35.47;;;20.25;;
46675;SDS011;32412;51.478;5.694;2023-10-31T06:15:27;34.30;;;19.42;;
46675;SDS011;32412;51.478;5.694;2023-10-31T06:17:52;32.72;;;19.73;;
46675;SDS011;32412;51.478;5.694;2023-10-31T06:20:18;39.85;;;20.00;;
46675;SDS011;32412;51.478;5.694;2023-10-31T06:22:43;33.47;;;19.00;;
46675;SDS011;32412;51.478;5.694;2023-10-31T06:25:09;34.08;;;18.73;;
46675;SDS011;32412;51.478;5.694;2023-10-31T06:27:34;29.38;;;17.98;;
46675;SDS011;32412;51.478;5.694;2023-10-31T06:30:00;30.70;;;17.10;;
46675;SDS011;32412;51.478;5.694;2023-10-31T06:32:26;31.33;;;17.77;;
46675;SDS011;32412;51.478;5.694;2023-10-31T06:34:51;42.45;;;18.92;;
46675;SDS011;32412;51.478;5.694;2023-10-31T06:37:18;30.35;;;17.00;;
46675;SDS011;32412;51.478;5.694;2023-10-31T06:39:43;28.50;;;16.80;;
46675;SDS011;32412;51.478;5.694;2023-10-31T06:42:09;29.50;;;16.88;;
46675;SDS011;32412;51.478;5.694;2023-10-31T06:44:35;30.20;;;17.50;;
46675;SDS011;32412;51.478;5.694;2023-10-31T06:47:00;29.98;;;17.85;;
46675;SDS011;32412;51.478;5.694;2023-10-31T06:49:26;33.25;;;18.25;;
46675;SDS011;32412;51.478;5.694;2023-10-31T06:51:51;32.40;;;19.67;;
46675;SDS011;32412;51.478;5.694;2023-10-31T06:54:17;31.17;;;17.83;;
46675;SDS011;32412;51.478;5.694;2023-10-31T06:56:42;34.97;;;18.50;;
46675;SDS011;32412;51.478;5.694;2023-10-31T06:59:08;32.35;;;19.38;;
46675;SDS011;32412;51.478;5.694;2023-10-31T07:01:34;32.08;;;18.42;;
46675;SDS011;32412;51.478;5.694;2023-10-31T07:03:59;33.97;;;19.63;;
46675;SDS011;32412;51.478;5.694;2023-10-31T07:06:25;32.03;;;19.75;;
46675;SDS011;32412;51.478;5.694;2023-10-31T07:08:51;33.42;;;19.90;;
46675;SDS011;32412;51.478;5.694;2023-10-31T07:11:16;35.13;;;20.13;;
46675;SDS011;32412;51.478;5.694;2023-10-31T07:13:42;33.65;;;19.52;;
46675;SDS011;32412;51.478;5.694;2023-10-31T07:16:09;31.20;;;19.48;;
46675;SDS011;32412;51.478;5.694;2023-10-31T07:18:35;32.85;;;20.30;;
46675;SDS011;32412;51.478;5.694;2023-10-31T07:21:01;32.72;;;19.23;;
46675;SDS011;32412;51.478;5.694;2023-10-31T07:23:26;31.52;;;18.63;;
46675;SDS011;32412;51.478;5.694;2023-10-31T07:25:52;30.60;;;19.25;;
46675;SDS011;32412;51.478;5.694;2023-10-31T07:28:17;32.65;;;17.92;;
46675;SDS011;32412;51.478;5.694;2023-10-31T07:30:43;25.92;;;17.13;;
46675;SDS011;32412;51.478;5.694;2023-10-31T07:33:09;27.45;;;16.67;;
46675;SDS011;32412;51.478;5.694;2023-10-31T07:35:35;29.20;;;16.35;;
46675;SDS011;32412;51.478;5.694;2023-10-31T07:38:00;22.25;;;15.85;;
46675;SDS011;32412;51.478;5.694;2023-10-31T07:40:26;22.55;;;15.07;;
46675;SDS011;32412;51.478;5.694;2023-10-31T07:42:51;24.52;;;14.15;;
46675;SDS011;32412;51.478;5.694;2023-10-31T07:45:17;21.52;;;13.48;;
46675;SDS011;32412;51.478;5.694;2023-10-31T07:47:43;19.95;;;12.93;;
46675;SDS011;32412;51.478;5.694;2023-10-31T07:50:08;16.80;;;12.32;;
46675;SDS011;32412;51.478;5.694;2023-10-31T07:52:34;17.30;;;11.73;;
46675;SDS011;32412;51.478;5.694;2023-10-31T07:55:00;17.55;;;12.98;;
46675;SDS011;32412;51.478;5.694;2023-10-31T07:57:25;16.90;;;11.65;;
46675;SDS011;32412;51.478;5.694;2023-10-31T07:59:51;19.08;;;12.57;;
46675;SDS011;32412;51.478;5.694;2023-10-31T08:02:17;20.00;;;13.15;;
46675;SDS011;32412;51.478;5.694;2023-10-31T08:04:42;18.75;;;11.73;;
46675;SDS011;32412;51.478;5.694;2023-10-31T08:07:08;18.50;;;13.13;;
46675;SDS011;32412;51.478;5.694;2023-10-31T08:09:33;20.50;;;13.63;;
46675;SDS011;32412;51.478;5.694;2023-10-31T08:11:59;20.45;;;13.35;;
46675;SDS011;32412;51.478;5.694;2023-10-31T08:14:25;23.88;;;14.75;;
46675;SDS011;32412;51.478;5.694;2023-10-31T08:16:50;23.70;;;14.93;;
46675;SDS011;32412;51.478;5.694;2023-10-31T08:19:16;23.05;;;15.52;;
46675;SDS011;32412;51.478;5.694;2023-10-31T08:21:41;21.80;;;15.68;;
46675;SDS011;32412;51.478;5.694;2023-10-31T08:24:07;24.55;;;16.10;;
46675;SDS011;32412;51.478;5.694;2023-10-31T08:26:33;21.48;;;15.70;;
46675;SDS011;32412;51.478;5.694;2023-10-31T08:28:59;28.00;;;16.13;;
46675;SDS011;32412;51.478;5.694;2023-10-31T08:31:25;26.15;;;16.73;;
46675;SDS011;32412;51.478;5.694;2023-10-31T08:33:50;23.50;;;15.30;;
46675;SDS011;32412;51.478;5.694;2023-10-31T08:36:16;24.17;;;15.77;;
46675;SDS011;32412;51.478;5.694;2023-10-31T08:38:42;25.48;;;16.52;;
46675;SDS011;32412;51.478;5.694;2023-10-31T08:41:07;27.17;;;16.55;;
46675;SDS011;32412;51.478;5.694;2023-10-31T08:43:33;25.83;;;16.83;;
46675;SDS011;32412;51.478;5.694;2023-10-31T08:45:59;23.52;;;15.70;;
46675;SDS011;32412;51.478;5.694;2023-10-31T08:48:25;27.80;;;16.00;;
46675;SDS011;32412;51.478;5.694;2023-10-31T08:50:51;28.00;;;15.65;;
46675;SDS011;32412;51.478;5.694;2023-10-31T08:53:16;25.73;;;16.08;;
46675;SDS011;32412;51.478;5.694;2023-10-31T08:55:44;20.35;;;14.02;;
46675;SDS011;32412;51.478;5.694;2023-10-31T08:58:13;25.65;;;15.30;;
46675;SDS011;32412;51.478;5.694;2023-10-31T09:00:39;24.88;;;15.13;;
46675;SDS011;32412;51.478;5.694;2023-10-31T09:03:07;26.90;;;14.15;;
46675;SDS011;32412;51.478;5.694;2023-10-31T09:05:33;21.27;;;14.13;;
46675;SDS011;32412;51.478;5.694;2023-10-31T09:07:59;19.52;;;12.73;;
46675;SDS011;32412;51.478;5.694;2023-10-31T09:10:24;19.15;;;12.10;;
46675;SDS011;32412;51.478;5.694;2023-10-31T09:12:50;18.20;;;11.95;;
46675;SDS011;32412;51.478;5.694;2023-10-31T09:15:16;17.83;;;11.52;;
46675;SDS011;32412;51.478;5.694;2023-10-31T09:17:41;19.58;;;11.35;;
46675;SDS011;32412;51.478;5.694;2023-10-31T09:20:08;20.27;;;11.75;;
46675;SDS011;32412;51.478;5.694;2023-10-31T09:22:34;15.43;;;10.20;;
46675;SDS011;32412;51.478;5.694;2023-10-31T09:24:59;18.48;;;10.27;;
46675;SDS011;32412;51.478;5.694;2023-10-31T09:27:25;17.92;;;10.55;;
46675;SDS011;32412;51.478;5.694;2023-10-31T09:29:51;16.55;;;9.68;;
46675;SDS011;32412;51.478;5.694;2023-10-31T09:32:17;14.98;;;9.18;;
46675;SDS011;32412;51.478;5.694;2023-10-31T09:34:43;16.55;;;10.32;;
46675;SDS011;32412;51.478;5.694;2023-10-31T09:37:09;15.98;;;9.35;;
46675;SDS011;32412;51.478;5.694;2023-10-31T09:39:34;15.32;;;8.65;;
46675;SDS011;32412;51.478;5.694;2023-10-31T09:42:00;12.25;;;8.80;;
46675;SDS011;32412;51.478;5.694;2023-10-31T09:44:26;13.73;;;8.52;;
46675;SDS011;32412;51.478;5.694;2023-10-31T09:46:52;13.43;;;8.40;;
46675;SDS011;32412;51.478;5.694;2023-10-31T09:49:18;12.82;;;8.75;;
46675;SDS011;32412;51.478;5.694;2023-10-31T09:51:45;13.77;;;8.43;;
46675;SDS011;32412;51.478;5.694;2023-10-31T09:54:11;16.35;;;8.95;;
46675;SDS011;32412;51.478;5.694;2023-10-31T09:56:40;14.10;;;9.00;;
46675;SDS011;32412;51.478;5.694;2023-10-31T09:59:06;14.80;;;8.93;;
46675;SDS011;32412;51.478;5.694;2023-10-31T10:01:32;19.52;;;9.85;;
46675;SDS011;32412;51.478;5.694;2023-10-31T10:03:58;12.60;;;9.60;;
46675;SDS011;32412;51.478;5.694;2023-10-31T10:06:24;13.73;;;8.20;;
46675;SDS011;32412;51.478;5.694;2023-10-31T10:08:50;13.20;;;8.93;;
46675;SDS011;32412;51.478;5.694;2023-10-31T10:11:16;13.32;;;8.55;;
46675;SDS011;32412;51.478;5.694;2023-10-31T10:13:41;13.35;;;8.50;;
46675;SDS011;32412;51.478;5.694;2023-10-31T10:16:07;11.07;;;8.60;;
46675;SDS011;32412;51.478;5.694;2023-10-31T10:18:34;15.88;;;9.00;;
46675;SDS011;32412;51.478;5.694;2023-10-31T10:21:03;13.20;;;8.00;;
46675;SDS011;32412;51.478;5.694;2023-10-31T10:23:30;11.55;;;9.48;;
46675;SDS011;32412;51.478;5.694;2023-10-31T10:25:57;13.27;;;8.52;;
46675;SDS011;32412;51.478;5.694;2023-10-31T10:28:23;13.45;;;9.15;;
46675;SDS011;32412;51.478;5.694;2023-10-31T10:30:50;15.27;;;9.18;;
46675;SDS011;32412;51.478;5.694;2023-10-31T10:33:16;13.75;;;8.80;;
46675;SDS011;32412;51.478;5.694;2023-10-31T10:35:42;12.55;;;8.82;;
46675;SDS011;32412;51.478;5.694;2023-10-31T10:40:39;14.63;;;9.00;;
46675;SDS011;32412;51.478;5.694;2023-10-31T10:43:13;13.50;;;8.50;;
46675;SDS011;32412;51.478;5.694;2023-10-31T10:45:43;16.60;;;8.88;;
46675;SDS011;32412;51.478;5.694;2023-10-31T10:48:14;13.95;;;8.68;;
46675;SDS011;32412;51.478;5.694;2023-10-31T10:50:42;15.93;;;8.85;;
46675;SDS011;32412;51.478;5.694;2023-10-31T10:53:15;13.93;;;8.63;;
46675;SDS011;32412;51.478;5.694;2023-10-31T10:55:47;18.85;;;9.55;;
46675;SDS011;32412;51.478;5.694;2023-10-31T11:01:26;13.23;;;9.00;;
46675;SDS011;32412;51.478;5.694;2023-10-31T11:03:53;12.02;;;8.90;;
46675;SDS011;32412;51.478;5.694;2023-10-31T11:06:21;12.50;;;8.32;;
46675;SDS011;32412;51.478;5.694;2023-10-31T11:08:47;13.77;;;8.25;;
46675;SDS011;32412;51.478;5.694;2023-10-31T11:11:13;12.93;;;8.13;;
46675;SDS011;32412;51.478;5.694;2023-10-31T11:13:43;13.48;;;8.52;;
46675;SDS011;32412;51.478;5.694;2023-10-31T11:16:17;13.10;;;8.23;;
46675;SDS011;32412;51.478;5.694;2023-10-31T11:21:21;14.57;;;8.68;;
46675;SDS011;32412;51.478;5.694;2023-10-31T11:23:56;9.95;;;7.63;;
46675;SDS011;32412;51.478;5.694;2023-10-31T11:26:34;14.60;;;8.07;;
46675;SDS011;32412;51.478;5.694;2023-10-31T11:29:03;11.80;;;7.50;;
46675;SDS011;32412;51.478;5.694;2023-10-31T11:31:39;11.73;;;7.47;;
46675;SDS011;32412;51.478;5.694;2023-10-31T11:34:05;15.18;;;7.80;;
46675;SDS011;32412;51.478;5.694;2023-10-31T11:36:31;9.45;;;7.43;;
46675;SDS011;32412;51.478;5.694;2023-10-31T11:39:10;10.43;;;7.32;;
46675;SDS011;32412;51.478;5.694;2023-10-31T11:41:39;11.13;;;6.88;;
46675;SDS011;32412;51.478;5.694;2023-10-31T11:44:05;12.80;;;7.68;;
46675;SDS011;32412;51.478;5.694;2023-10-31T11:46:31;10.55;;;6.90;;
46675;SDS011;32412;51.478;5.694;2023-10-31T11:48:56;9.50;;;6.55;;
46675;SDS011;32412;51.478;5.694;2023-10-31T11:51:25;8.93;;;6.57;;
46675;SDS011;32412;51.478;5.694;2023-10-31T11:53:51;7.78;;;5.88;;
46675;SDS011;32412;51.478;5.694;2023-10-31T11:56:17;9.55;;;6.15;;
46675;SDS011;32412;51.478;5.694;2023-10-31T11:58:43;12.48;;;5.88;;
46675;SDS011;32412;51.478;5.694;2023-10-31T12:01:09;7.90;;;5.47;;
46675;SDS011;32412;51.478;5.694;2023-10-31T12:03:39;8.50;;;5.32;;
46675;SDS011;32412;51.478;5.694;2023-10-31T12:06:06;9.63;;;6.40;;
46675;SDS011;32412;51.478;5.694;2023-10-31T12:08:36;8.23;;;5.80;;
46675;SDS011;32412;51.478;5.694;2023-10-31T12:11:10;9.23;;;5.75;;
46675;SDS011;32412;51.478;5.694;2023-10-31T12:13:37;8.98;;;5.53;;
46675;SDS011;32412;51.478;5.694;2023-10-31T12:16:04;8.65;;;5.82;;
46675;SDS011;32412;51.478;5.694;2023-10-31T12:18:31;4.22;;;3.83;;
46675;SDS011;32412;51.478;5.694;2023-10-31T12:20:58;8.85;;;4.18;;
46675;SDS011;32412;51.478;5.694;2023-10-31T12:23:24;3.92;;;3.53;;
46675;SDS011;32412;51.478;5.694;2023-10-31T12:25:50;7.10;;;3.17;;
46675;SDS011;32412;51.478;5.694;2023-10-31T12:28:17;5.53;;;2.83;;
46675;SDS011;32412;51.478;5.694;2023-10-31T12:30:47;4.10;;;2.80;;
46675;SDS011;32412;51.478;5.694;2023-10-31T12:33:14;7.88;;;3.10;;
46675;SDS011;32412;51.478;5.694;2023-10-31T12:35:40;5.03;;;3.00;;
46675;SDS011;32412;51.478;5.694;2023-10-31T12:38:06;2.90;;;2.10;;
46675;SDS011;32412;51.478;5.694;2023-10-31T12:40:34;3.47;;;2.10;;
46675;SDS011;32412;51.478;5.694;2023-10-31T12:43:01;2.97;;;2.10;;
46675;SDS011;32412;51.478;5.694;2023-10-31T12:45:28;5.75;;;1.88;;
46675;SDS011;32412;51.478;5.694;2023-10-31T12:48:03;2.95;;;1.52;;
46675;SDS011;32412;51.478;5.694;2023-10-31T12:50:34;1.98;;;1.50;;
46675;SDS011;32412;51.478;5.694;2023-10-31T12:53:05;3.00;;;1.67;;
46675;SDS011;32412;51.478;5.694;2023-10-31T12:55:37;3.20;;;1.40;;
46675;SDS011;32412;51.478;5.694;2023-10-31T12:58:04;1.92;;;1.33;;
46675;SDS011;32412;51.478;5.694;2023-10-31T13:00:31;1.33;;;1.10;;
46675;SDS011;32412;51.478;5.694;2023-10-31T13:03:05;4.18;;;1.83;;
46675;SDS011;32412;51.478;5.694;2023-10-31T13:05:33;1.80;;;1.40;;
46675;SDS011;32412;51.478;5.694;2023-10-31T13:07:59;3.17;;;1.50;;
46675;SDS011;32412;51.478;5.694;2023-10-31T13:10:28;2.65;;;1.55;;
46675;SDS011;32412;51.478;5.694;2023-10-31T13:12:54;2.38;;;1.40;;
46675;SDS011;32412;51.478;5.694;2023-10-31T13:15:21;3.30;;;1.20;;
46675;SDS011;32412;51.478;5.694;2023-10-31T13:17:48;2.90;;;1.63;;
46675;SDS011;32412;51.478;5.694;2023-10-31T13:20:15;4.20;;;1.80;;
46675;SDS011;32412;51.478;5.694;2023-10-31T13:22:43;1.85;;;1.58;;
46675;SDS011;32412;51.478;5.694;2023-10-31T13:25:09;2.92;;;1.70;;
46675;SDS011;32412;51.478;5.694;2023-10-31T13:27:36;4.10;;;1.80;;
46675;SDS011;32412;51.478;5.694;2023-10-31T13:30:03;2.97;;;1.80;;
46675;SDS011;32412;51.478;5.694;2023-10-31T13:32:29;2.65;;;1.40;;
46675;SDS011;32412;51.478;5.694;2023-10-31T13:34:55;5.43;;;1.40;;
46675;SDS011;32412;51.478;5.694;2023-10-31T13:37:21;3.95;;;1.40;;
46675;SDS011;32412;51.478;5.694;2023-10-31T13:39:47;5.47;;;1.70;;
46675;SDS011;32412;51.478;5.694;2023-10-31T13:42:13;4.05;;;1.30;;
46675;SDS011;32412;51.478;5.694;2023-10-31T13:44:42;1.92;;;1.25;;
46675;SDS011;32412;51.478;5.694;2023-10-31T13:47:08;2.40;;;1.30;;
46675;SDS011;32412;51.478;5.694;2023-10-31T13:49:35;2.15;;;1.25;;
46675;SDS011;32412;51.478;5.694;2023-10-31T13:52:02;5.70;;;1.23;;
46675;SDS011;32412;51.478;5.694;2023-10-31T13:54:28;2.83;;;1.15;;
46675;SDS011;32412;51.478;5.694;2023-10-31T13:56:54;1.67;;;1.08;;
46675;SDS011;32412;51.478;5.694;2023-10-31T13:59:20;3.17;;;1.30;;
46675;SDS011;32412;51.478;5.694;2023-10-31T14:01:46;5.75;;;1.58;;
46675;SDS011;32412;51.478;5.694;2023-10-31T14:04:12;1.48;;;1.25;;
46675;SDS011;32412;51.478;5.694;2023-10-31T14:06:38;4.97;;;1.40;;
46675;SDS011;32412;51.478;5.694;2023-10-31T14:09:04;1.95;;;1.45;;
46675;SDS011;32412;51.478;5.694;2023-10-31T14:11:32;3.20;;;1.58;;
46675;SDS011;32412;51.478;5.694;2023-10-31T14:13:58;5.90;;;2.00;;
46675;SDS011;32412;51.478;5.694;2023-10-31T14:16:28;4.72;;;1.80;;
46675;SDS011;32412;51.478;5.694;2023-10-31T14:18:57;4.28;;;1.60;;
46675;SDS011;32412;51.478;5.694;2023-10-31T14:21:23;2.88;;;1.83;;
46675;SDS011;32412;51.478;5.694;2023-10-31T14:23:50;5.53;;;1.92;;
46675;SDS011;32412;51.478;5.694;2023-10-31T14:26:22;5.60;;;2.20;;
46675;SDS011;32412;51.478;5.694;2023-10-31T14:28:49;4.70;;;2.00;;
46675;SDS011;32412;51.478;5.694;2023-10-31T14:31:15;8.18;;;1.85;;